Time;durP1;ratioP1;P1;durP2;ratioP2;P2;SDS_P1;SDS_P2;PMS_P1;PMS_P2;Temp;Humidity;BMP_temperature;BMP_pressure;BME280_temperature;BME280_humidity;BME280_pressure;Samples;Min_cycle;Max_cycle;Signal;HPM_P1;HPM_P2
2022/12/05 00:01:44;;;;;;;61.83;37.75;;;;;;;;;;4875639;29;20085;-90
2022/12/05 01:19:24;;;;;;;33.95;23.13;;;;;;;;;;5195315;23;20052;-91
2022/12/05 01:27:23;;;;;;;27.52;18.58;;;;;;;;;;4876307;29;20476;-94
2022/12/05 01:38:15;;;;;;;24.20;16.95;;;;;;;;;;4916630;29;20075;-91
2022/12/05 05:58:29;;;;;;;24.10;16.85;;;;;;;;;;4880271;29;20053;-88
2022/12/05 06:01:01;;;;;;;26.20;17.33;;;;;;;;;;4864665;29;20387;-91
2022/12/05 06:03:28;;;;;;;29.10;19.58;;;;;;;;;;4864578;29;20025;-91
2022/12/05 06:05:58;;;;;;;26.77;18.42;;;;;;;;;;4864217;29;20037;-91
2022/12/05 06:08:24;;;;;;;27.15;18.83;;;;;;;;;;4864262;29;20491;-91
2022/12/05 06:10:50;;;;;;;22.08;15.85;;;;;;;;;;4864633;29;20021;-91
2022/12/05 06:13:16;;;;;;;23.02;16.30;;;;;;;;;;4864844;29;20076;-93
2022/12/05 06:15:42;;;;;;;28.30;17.58;;;;;;;;;;4864524;29;20032;-89
2022/12/05 06:18:08;;;;;;;26.10;17.50;;;;;;;;;;4864399;29;20065;-91
2022/12/05 06:20:36;;;;;;;31.75;19.65;;;;;;;;;;4863688;29;20053;-91
2022/12/05 06:23:02;;;;;;;30.55;20.60;;;;;;;;;;4864003;29;20116;-90
2022/12/05 06:25:28;;;;;;;30.48;21.02;;;;;;;;;;4864657;29;20032;-91
2022/12/05 06:27:54;;;;;;;35.65;22.35;;;;;;;;;;4864174;29;20486;-90
2022/12/05 06:30:20;;;;;;;29.02;19.67;;;;;;;;;;4862971;29;20071;-89
2022/12/05 06:32:46;;;;;;;32.50;21.60;;;;;;;;;;4870135;29;20116;-90
2022/12/05 06:35:15;;;;;;;33.28;21.20;;;;;;;;;;4863602;29;20531;-88
2022/12/05 06:37:44;;;;;;;30.60;21.27;;;;;;;;;;4895407;29;20028;-89
2022/12/05 06:40:12;;;;;;;30.13;20.65;;;;;;;;;;4882057;29;20127;-89
2022/12/05 06:42:38;;;;;;;28.45;18.67;;;;;;;;;;4882025;29;20513;-90
2022/12/05 06:45:05;;;;;;;31.48;20.73;;;;;;;;;;4882049;29;20375;-88
2022/12/05 06:47:31;;;;;;;29.48;20.52;;;;;;;;;;4881416;29;20600;-90
2022/12/05 06:50:09;;;;;;;31.75;20.90;;;;;;;;;;4878734;29;20084;-89
2022/12/05 06:58:15;;;;;;;30.33;19.73;;;;;;;;;;5587665;23;20052;-89
2022/12/05 07:03:26;;;;;;;28.33;18.83;;;;;;;;;;4881909;29;20076;-88
2022/12/05 07:05:52;;;;;;;29.00;18.75;;;;;;;;;;4865218;29;20033;-91
2022/12/05 07:08:18;;;;;;;28.13;17.98;;;;;;;;;;4865176;29;20087;-92
2022/12/05 07:10:50;;;;;;;29.30;18.33;;;;;;;;;;4866375;29;20100;-92
2022/12/05 07:13:16;;;;;;;26.73;19.00;;;;;;;;;;4865071;29;20107;-92
2022/12/05 07:15:42;;;;;;;29.58;18.33;;;;;;;;;;4865359;29;20033;-89
2022/12/05 07:18:08;;;;;;;34.40;22.27;;;;;;;;;;4864995;29;20471;-91
2022/12/05 07:20:34;;;;;;;30.17;20.13;;;;;;;;;;4864591;29;20033;-90
2022/12/05 07:23:00;;;;;;;34.45;21.92;;;;;;;;;;4864776;29;20060;-90
2022/12/05 07:25:26;;;;;;;34.08;21.23;;;;;;;;;;4864804;29;20044;-90
2022/12/05 07:27:52;;;;;;;30.83;20.58;;;;;;;;;;4864627;29;20029;-91
2022/12/05 07:30:18;;;;;;;36.47;24.13;;;;;;;;;;4864707;29;20041;-90
2022/12/05 07:32:44;;;;;;;35.35;22.83;;;;;;;;;;4863881;29;20410;-93
2022/12/05 07:35:10;;;;;;;32.70;22.80;;;;;;;;;;4864887;29;20021;-93
2022/12/05 07:37:37;;;;;;;40.75;24.55;;;;;;;;;;4864687;29;20029;-91
2022/12/05 07:40:03;;;;;;;35.47;23.33;;;;;;;;;;4864476;29;20093;-91
2022/12/05 07:42:29;;;;;;;35.45;23.13;;;;;;;;;;4865961;29;20035;-89
2022/12/05 07:44:55;;;;;;;34.30;22.88;;;;;;;;;;4865122;29;20423;-90
2022/12/05 07:47:21;;;;;;;34.35;23.20;;;;;;;;;;4864076;29;20044;-90
2022/12/05 07:49:47;;;;;;;37.90;23.92;;;;;;;;;;4864742;29;20074;-91
2022/12/05 07:52:14;;;;;;;40.80;24.15;;;;;;;;;;4864146;29;20033;-90
2022/12/05 07:54:40;;;;;;;43.17;26.67;;;;;;;;;;4864411;29;20033;-90
2022/12/05 08:00:15;;;;;;;42.20;25.60;;;;;;;;;;4875566;23;20064;-92
2022/12/05 08:06:20;;;;;;;44.35;25.90;;;;;;;;;;4862524;29;20542;-89
2022/12/05 08:08:50;;;;;;;51.63;30.45;;;;;;;;;;4848389;29;20093;-90
2022/12/05 08:11:21;;;;;;;51.80;29.65;;;;;;;;;;4846872;29;20022;-93
2022/12/05 08:13:48;;;;;;;52.40;29.02;;;;;;;;;;4847311;29;20093;-92
2022/12/05 08:16:15;;;;;;;50.55;29.15;;;;;;;;;;4846136;29;20025;-90
2022/12/05 08:18:42;;;;;;;48.30;28.95;;;;;;;;;;4845798;29;20026;-91
2022/12/05 08:21:16;;;;;;;53.67;30.70;;;;;;;;;;4845670;29;20483;-91
2022/12/05 08:23:42;;;;;;;53.80;30.42;;;;;;;;;;4861840;29;20064;-92
2022/12/05 08:26:10;;;;;;;52.70;30.40;;;;;;;;;;4845493;29;20045;-91
2022/12/05 08:28:36;;;;;;;59.47;33.70;;;;;;;;;;4847058;29;20040;-91
2022/12/05 08:31:10;;;;;;;58.58;31.73;;;;;;;;;;4845946;29;20030;-91
2022/12/05 08:33:36;;;;;;;50.42;29.10;;;;;;;;;;4845481;29;20558;-92
2022/12/05 08:36:03;;;;;;;47.42;28.38;;;;;;;;;;4845165;29;20486;-90
2022/12/05 08:38:30;;;;;;;53.97;29.75;;;;;;;;;;4845362;29;20094;-91
2022/12/05 08:40:56;;;;;;;57.50;30.40;;;;;;;;;;4845183;29;20540;-91
2022/12/05 08:43:22;;;;;;;57.42;32.05;;;;;;;;;;4844869;29;20040;-92
2022/12/05 08:45:49;;;;;;;52.90;31.38;;;;;;;;;;4845116;29;20034;-91
2022/12/05 08:48:15;;;;;;;53.92;31.48;;;;;;;;;;4845081;29;20034;-91
2022/12/05 08:50:41;;;;;;;52.22;30.95;;;;;;;;;;4845098;29;20093;-92
2022/12/05 08:53:08;;;;;;;52.72;30.60;;;;;;;;;;4860974;29;20034;-91
2022/12/05 08:55:35;;;;;;;65.45;32.22;;;;;;;;;;4845104;29;20050;-91
2022/12/05 08:58:04;;;;;;;54.97;30.60;;;;;;;;;;4845280;29;20085;-92
2022/12/05 09:00:30;;;;;;;57.33;31.08;;;;;;;;;;4859786;29;20033;-91
2022/12/05 09:02:57;;;;;;;60.78;31.90;;;;;;;;;;4860595;29;20072;-91
2022/12/05 09:05:25;;;;;;;73.35;35.30;;;;;;;;;;4860508;29;20030;-92
2022/12/05 09:07:54;;;;;;;57.78;30.73;;;;;;;;;;4860299;29;20081;-91
2022/12/05 09:10:20;;;;;;;62.95;31.75;;;;;;;;;;4860605;29;20395;-91
2022/12/05 09:12:46;;;;;;;55.03;30.25;;;;;;;;;;4860759;29;20041;-92
2022/12/05 09:15:13;;;;;;;60.47;31.85;;;;;;;;;;4862036;29;20036;-95
2022/12/05 09:17:39;;;;;;;70.88;36.35;;;;;;;;;;4861111;29;20030;-94
2022/12/05 09:20:06;;;;;;;77.57;38.85;;;;;;;;;;4860269;29;20087;-91
2022/12/05 09:22:32;;;;;;;74.57;38.75;;;;;;;;;;4861966;29;20527;-92
2022/12/05 09:24:59;;;;;;;73.40;37.85;;;;;;;;;;4861458;29;20038;-94
2022/12/05 09:27:27;;;;;;;73.07;38.00;;;;;;;;;;4859795;29;20041;-92
2022/12/05 09:29:53;;;;;;;67.43;34.72;;;;;;;;;;4862193;29;20033;-90
2022/12/05 09:32:19;;;;;;;68.65;35.80;;;;;;;;;;4864495;29;20052;-91
2022/12/05 09:34:45;;;;;;;69.55;34.20;;;;;;;;;;4860498;29;20117;-92
2022/12/05 09:37:12;;;;;;;87.68;38.70;;;;;;;;;;4860402;29;20029;-93
2022/12/05 09:39:38;;;;;;;76.95;36.53;;;;;;;;;;4858902;29;20033;-92
2022/12/05 09:42:23;;;;;;;65.07;33.47;;;;;;;;;;4858586;29;20029;-92
2022/12/05 09:44:49;;;;;;;74.85;36.03;;;;;;;;;;4858786;29;20029;-91
2022/12/05 09:47:28;;;;;;;73.82;36.83;;;;;;;;;;4841712;29;20042;-90
2022/12/05 09:49:58;;;;;;;77.25;37.10;;;;;;;;;;4860330;29;20085;-92
2022/12/05 09:52:29;;;;;;;73.85;36.65;;;;;;;;;;4860234;29;20030;-91
2022/12/05 09:54:56;;;;;;;68.80;35.20;;;;;;;;;;4861107;29;20527;-92
2022/12/05 09:57:43;;;;;;;79.30;36.78;;;;;;;;;;4850526;29;20170;-90
2022/12/05 10:00:11;;;;;;;66.22;34.45;;;;;;;;;;4851848;29;20033;-92
2022/12/05 10:02:43;;;;;;;75.88;36.88;;;;;;;;;;4863221;29;20079;-92
2022/12/05 10:05:28;;;;;;;70.93;35.28;;;;;;;;;;4865034;29;20081;-92
2022/12/05 10:07:57;;;;;;;80.97;37.80;;;;;;;;;;4863907;29;20041;-92
2022/12/05 10:10:33;;;;;;;63.13;32.60;;;;;;;;;;4866151;29;20053;-92
2022/12/05 10:13:07;;;;;;;77.30;36.63;;;;;;;;;;4866343;29;20034;-92
2022/12/05 10:15:43;;;;;;;77.32;36.17;;;;;;;;;;4865219;29;20030;-93
2022/12/05 10:18:22;;;;;;;86.80;38.53;;;;;;;;;;4864805;29;20424;-93
2022/12/05 10:20:51;;;;;;;66.15;33.85;;;;;;;;;;4866046;29;20041;-93
2022/12/05 10:23:17;;;;;;;69.75;34.30;;;;;;;;;;4865532;29;20033;-92
2022/12/05 10:25:44;;;;;;;76.35;35.42;;;;;;;;;;4865153;29;20059;-93
2022/12/05 10:28:24;;;;;;;72.03;33.97;;;;;;;;;;4864283;29;20030;-92
2022/12/05 10:30:52;;;;;;;67.20;33.67;;;;;;;;;;4863418;29;20415;-93
2022/12/05 10:33:19;;;;;;;69.25;33.88;;;;;;;;;;4863347;29;20484;-93
2022/12/05 10:35:49;;;;;;;77.28;37.60;;;;;;;;;;4863473;29;20040;-94
2022/12/05 10:38:15;;;;;;;71.45;35.45;;;;;;;;;;4863724;29;20121;-92
2022/12/05 10:49:10;;;;;;;76.97;37.78;;;;;;;;;;5102833;23;20072;-93
2022/12/05 10:51:37;;;;;;;85.60;40.17;;;;;;;;;;4846474;29;20053;-94
2022/12/05 10:54:24;;;;;;;94.28;42.53;;;;;;;;;;4847784;29;20036;-94
2022/12/05 10:56:58;;;;;;;76.05;36.90;;;;;;;;;;4850082;29;20037;-93
2022/12/05 10:59:37;;;;;;;77.15;37.08;;;;;;;;;;4854895;29;20044;-94
2022/12/05 11:02:06;;;;;;;75.28;37.22;;;;;;;;;;4851320;29;20033;-91
2022/12/05 11:04:43;;;;;;;79.35;37.22;;;;;;;;;;4849636;29;20448;-93
2022/12/05 11:07:22;;;;;;;101.60;43.00;;;;;;;;;;4848719;29;20069;-91
2022/12/05 11:09:49;;;;;;;84.30;39.60;;;;;;;;;;4846550;29;20056;-92
2022/12/05 11:12:19;;;;;;;107.20;46.80;;;;;;;;;;4846939;29;20029;-92
2022/12/05 11:14:59;;;;;;;92.60;44.03;;;;;;;;;;4846575;29;20478;-91
2022/12/05 11:17:27;;;;;;;86.85;42.13;;;;;;;;;;4845535;29;20100;-90
2022/12/05 11:20:04;;;;;;;80.47;40.85;;;;;;;;;;4847248;29;20059;-92
2022/12/05 11:22:31;;;;;;;82.75;41.25;;;;;;;;;;4861959;29;20037;-93
2022/12/05 11:25:00;;;;;;;96.65;43.15;;;;;;;;;;4863462;29;20037;-92
2022/12/05 11:27:28;;;;;;;74.55;38.97;;;;;;;;;;4848017;29;20049;-92
2022/12/05 11:29:57;;;;;;;89.97;41.20;;;;;;;;;;4861718;29;20036;-92
2022/12/05 11:32:25;;;;;;;83.95;40.33;;;;;;;;;;4866229;29;20048;-91
2022/12/05 11:34:57;;;;;;;79.55;39.80;;;;;;;;;;4869171;29;20463;-92
2022/12/05 11:37:33;;;;;;;73.50;38.33;;;;;;;;;;4861846;29;20073;-91
2022/12/05 11:40:00;;;;;;;72.22;36.53;;;;;;;;;;4861226;29;20029;-92
2022/12/05 11:42:26;;;;;;;73.25;39.95;;;;;;;;;;4863210;29;20049;-93
2022/12/05 11:45:03;;;;;;;84.90;42.50;;;;;;;;;;4864694;29;20033;-92
2022/12/05 11:47:41;;;;;;;87.38;42.03;;;;;;;;;;4846703;29;20495;-92
2022/12/05 11:50:15;;;;;;;80.15;40.75;;;;;;;;;;4847312;29;20033;-92
2022/12/05 11:52:41;;;;;;;76.05;39.35;;;;;;;;;;4843911;29;20046;-94
2022/12/05 11:55:24;;;;;;;77.20;40.10;;;;;;;;;;4846088;29;20448;-92
2022/12/05 11:57:56;;;;;;;87.18;41.40;;;;;;;;;;4844329;29;20037;-92
2022/12/05 12:00:25;;;;;;;93.78;43.17;;;;;;;;;;4860046;29;20033;-93
2022/12/05 12:03:16;;;;;;;68.90;36.58;;;;;;;;;;4861152;29;20412;-90
2022/12/05 12:05:45;;;;;;;81.90;41.40;;;;;;;;;;4843037;29;20037;-90
2022/12/05 12:08:25;;;;;;;68.28;37.90;;;;;;;;;;4854690;29;20041;-92
2022/12/05 12:10:58;;;;;;;80.25;40.70;;;;;;;;;;4861394;29;20025;-90
2022/12/05 12:13:39;;;;;;;83.05;41.38;;;;;;;;;;4860641;29;20041;-90
2022/12/05 12:16:11;;;;;;;66.28;36.15;;;;;;;;;;4860994;29;20040;-94
2022/12/05 12:18:49;;;;;;;60.30;35.80;;;;;;;;;;4862107;29;20032;-94
2022/12/05 12:21:24;;;;;;;65.60;35.92;;;;;;;;;;4862115;29;20116;-92
2022/12/05 12:24:10;;;;;;;73.03;38.85;;;;;;;;;;4864696;29;20026;-92
2022/12/05 12:26:54;;;;;;;78.72;41.75;;;;;;;;;;4866065;29;20065;-95
2022/12/05 12:29:20;;;;;;;63.42;36.75;;;;;;;;;;4864426;29;20089;-93
2022/12/05 12:32:08;;;;;;;61.35;36.90;;;;;;;;;;4866333;29;20128;-93
2022/12/05 12:35:01;;;;;;;64.30;36.30;;;;;;;;;;4866316;29;20061;-93
2022/12/05 12:37:40;;;;;;;72.68;39.15;;;;;;;;;;4864123;29;20120;-93
2022/12/05 12:43:17;;;;;;;79.03;42.92;;;;;;;;;;4859165;29;20037;-95
2022/12/05 12:45:46;;;;;;;66.13;38.90;;;;;;;;;;4860298;29;20479;-92
2022/12/05 12:48:33;;;;;;;67.03;39.40;;;;;;;;;;4866087;29;20046;-95
2022/12/05 12:51:03;;;;;;;63.10;36.67;;;;;;;;;;4884403;29;20029;-94
2022/12/05 12:53:47;;;;;;;77.22;41.35;;;;;;;;;;4870291;29;20041;-94
2022/12/05 12:56:20;;;;;;;59.75;36.20;;;;;;;;;;4867350;29;20127;-93
2022/12/05 12:59:04;;;;;;;58.53;35.78;;;;;;;;;;4865434;29;20021;-93
2022/12/05 13:01:42;;;;;;;62.40;35.55;;;;;;;;;;4866375;29;20025;-94
2022/12/05 13:04:14;;;;;;;64.95;37.20;;;;;;;;;;4863240;29;20419;-91
2022/12/05 13:06:57;;;;;;;64.05;37.42;;;;;;;;;;4863536;29;20041;-92
2022/12/05 13:09:28;;;;;;;63.75;37.67;;;;;;;;;;4869256;29;20033;-92
2022/12/05 13:11:55;;;;;;;66.38;38.65;;;;;;;;;;4864482;29;20132;-93
2022/12/05 13:14:24;;;;;;;65.63;39.75;;;;;;;;;;4863495;29;20040;-93
2022/12/05 13:16:51;;;;;;;66.80;38.28;;;;;;;;;;4863738;29;20104;-92
2022/12/05 13:19:27;;;;;;;69.55;40.17;;;;;;;;;;4863332;29;20025;-92
2022/12/05 13:21:55;;;;;;;69.05;40.45;;;;;;;;;;4864460;29;20096;-92
2022/12/05 13:27:02;;;;;;;64.93;38.80;;;;;;;;;;5597683;23;20049;-91
2022/12/05 13:32:36;;;;;;;70.63;37.70;;;;;;;;;;4881838;23;20072;-92
2022/12/05 13:43:51;;;;;;;66.43;38.83;;;;;;;;;;4864426;29;20049;-91
2022/12/05 13:46:28;;;;;;;66.78;39.75;;;;;;;;;;4846474;29;20049;-94
2022/12/05 13:49:13;;;;;;;67.60;39.85;;;;;;;;;;4852239;29;20040;-91
2022/12/05 13:51:41;;;;;;;65.68;40.08;;;;;;;;;;4848571;29;20029;-92
2022/12/05 13:54:16;;;;;;;77.05;42.90;;;;;;;;;;4847926;29;20030;-94
2022/12/05 13:56:47;;;;;;;76.63;43.72;;;;;;;;;;4849217;29;20061;-95
2022/12/05 13:59:34;;;;;;;71.65;40.33;;;;;;;;;;4847636;29;20029;-93
2022/12/05 14:02:00;;;;;;;76.25;43.33;;;;;;;;;;4847501;29;20120;-92
2022/12/05 14:04:49;;;;;;;69.38;40.92;;;;;;;;;;4847711;29;20036;-94
2022/12/05 14:07:35;;;;;;;61.25;36.20;;;;;;;;;;4847604;29;20041;-93
2022/12/05 14:10:01;;;;;;;68.40;39.55;;;;;;;;;;4847410;29;20161;-94
2022/12/05 14:12:31;;;;;;;68.90;41.88;;;;;;;;;;4847566;29;20037;-93
2022/12/05 14:14:57;;;;;;;68.00;40.75;;;;;;;;;;4847855;29;20389;-92
2022/12/05 14:17:27;;;;;;;65.32;39.55;;;;;;;;;;4847461;29;20447;-93
2022/12/05 14:20:05;;;;;;;62.40;39.65;;;;;;;;;;4847829;29;20092;-94
2022/12/05 14:22:31;;;;;;;62.75;39.05;;;;;;;;;;4847638;29;20065;-93
2022/12/05 14:25:20;;;;;;;80.03;44.60;;;;;;;;;;4849445;29;20030;-91
2022/12/05 14:27:53;;;;;;;63.63;39.03;;;;;;;;;;4847508;29;20051;-92
2022/12/05 14:30:21;;;;;;;65.85;38.42;;;;;;;;;;4847767;29;20025;-91
2022/12/05 14:32:49;;;;;;;73.15;42.35;;;;;;;;;;4845546;29;20061;-92
2022/12/05 14:35:38;;;;;;;69.65;42.33;;;;;;;;;;4844501;29;20041;-91
2022/12/05 14:38:07;;;;;;;74.72;43.47;;;;;;;;;;4843161;29;20057;-93
2022/12/05 14:40:39;;;;;;;70.45;41.88;;;;;;;;;;4845356;29;20041;-93
2022/12/05 14:43:21;;;;;;;69.85;42.50;;;;;;;;;;4844234;29;20394;-94
2022/12/05 14:45:50;;;;;;;60.45;38.35;;;;;;;;;;4844196;29;20033;-95
2022/12/05 14:48:16;;;;;;;56.40;36.35;;;;;;;;;;4843971;29;20138;-94
2022/12/05 14:50:44;;;;;;;69.20;39.65;;;;;;;;;;4844160;29;20033;-94
2022/12/05 14:53:22;;;;;;;89.07;45.03;;;;;;;;;;4844652;29;20128;-94
2022/12/05 14:55:57;;;;;;;63.95;37.85;;;;;;;;;;4847005;29;20026;-91
2022/12/05 14:58:36;;;;;;;73.93;40.63;;;;;;;;;;4847794;29;20484;-90
2022/12/05 15:01:17;;;;;;;65.43;36.60;;;;;;;;;;4856536;29;20034;-94
2022/12/05 15:04:01;;;;;;;69.45;37.80;;;;;;;;;;4849577;29;20074;-95
2022/12/05 15:06:36;;;;;;;61.50;35.80;;;;;;;;;;4872922;29;20029;-95
2022/12/05 15:09:07;;;;;;;65.30;37.85;;;;;;;;;;4864544;29;20033;-93
2022/12/05 15:11:34;;;;;;;59.53;36.03;;;;;;;;;;4862183;29;20030;-93
2022/12/05 15:14:16;;;;;;;68.88;37.72;;;;;;;;;;4862438;29;20471;-93
2022/12/05 15:16:44;;;;;;;68.40;37.88;;;;;;;;;;4862488;29;20319;-93
2022/12/05 15:19:33;;;;;;;62.42;36.97;;;;;;;;;;4861524;29;20071;-91
2022/12/05 15:22:01;;;;;;;58.45;34.58;;;;;;;;;;4858894;29;20033;-94
2022/12/05 15:24:27;;;;;;;61.85;36.40;;;;;;;;;;4861892;29;20033;-93
2022/12/05 15:26:54;;;;;;;71.90;40.92;;;;;;;;;;4862658;29;20045;-93
2022/12/05 15:29:24;;;;;;;58.90;35.22;;;;;;;;;;4867638;29;20033;-93
2022/12/05 15:31:50;;;;;;;58.47;35.80;;;;;;;;;;4862979;29;20538;-95
2022/12/05 15:34:19;;;;;;;68.45;37.47;;;;;;;;;;4864684;29;20124;-92
2022/12/05 15:36:47;;;;;;;52.88;32.92;;;;;;;;;;4864818;29;20092;-91
2022/12/05 15:39:25;;;;;;;60.10;37.15;;;;;;;;;;4864589;29;20593;-92
2022/12/05 15:41:52;;;;;;;62.03;36.33;;;;;;;;;;4864569;29;20049;-93
2022/12/05 15:44:22;;;;;;;58.65;37.92;;;;;;;;;;4864368;29;20043;-93
2022/12/05 15:46:52;;;;;;;61.88;36.85;;;;;;;;;;4864844;29;20097;-93
2022/12/05 15:49:26;;;;;;;70.68;39.97;;;;;;;;;;4864602;29;20500;-94
2022/12/05 15:52:19;;;;;;;58.90;37.40;;;;;;;;;;4864624;29;20053;-93
2022/12/05 15:54:46;;;;;;;48.97;32.65;;;;;;;;;;4861823;29;20491;-94
2022/12/05 15:57:16;;;;;;;62.90;38.65;;;;;;;;;;4864071;29;20033;-94
2022/12/05 15:59:51;;;;;;;57.90;36.15;;;;;;;;;;4863607;29;20120;-94
2022/12/05 16:02:40;;;;;;;60.20;34.22;;;;;;;;;;4863733;29;20220;-93
2022/12/05 16:05:18;;;;;;;56.92;34.28;;;;;;;;;;4864457;29;20029;-93
2022/12/05 16:07:44;;;;;;;60.85;34.35;;;;;;;;;;4857616;29;20498;-94
2022/12/05 16:13:15;;;;;;;61.65;35.95;;;;;;;;;;4881196;29;20152;-91
2022/12/05 16:20:46;;;;;;;61.40;38.33;;;;;;;;;;4878440;29;20045;-91
2022/12/05 16:23:29;;;;;;;54.22;34.40;;;;;;;;;;4863596;29;20040;-92
2022/12/05 16:26:15;;;;;;;50.93;33.23;;;;;;;;;;4863728;29;20124;-91
2022/12/05 16:28:41;;;;;;;49.70;32.88;;;;;;;;;;4863897;29;20068;-89
2022/12/05 16:31:07;;;;;;;54.72;34.72;;;;;;;;;;4863412;29;20065;-91
2022/12/05 16:33:33;;;;;;;57.72;37.45;;;;;;;;;;4863372;29;20108;-92
2022/12/05 16:36:10;;;;;;;53.08;33.60;;;;;;;;;;4863875;29;20033;-91
2022/12/05 16:38:36;;;;;;;60.33;37.78;;;;;;;;;;4846479;29;20041;-96
2022/12/05 16:41:04;;;;;;;60.33;37.30;;;;;;;;;;4846261;29;20365;-93
2022/12/05 16:43:31;;;;;;;52.70;35.63;;;;;;;;;;4844611;29;20041;-94
2022/12/05 16:46:12;;;;;;;56.95;34.88;;;;;;;;;;4844732;29;20029;-91
2022/12/05 16:48:39;;;;;;;56.17;35.47;;;;;;;;;;4845171;29;20032;-92
2022/12/05 16:51:27;;;;;;;59.53;36.55;;;;;;;;;;4844570;29;20101;-92
2022/12/05 16:53:54;;;;;;;58.10;35.03;;;;;;;;;;4845223;29;20109;-93
2022/12/05 16:56:20;;;;;;;58.25;36.60;;;;;;;;;;4845777;29;20073;-92
2022/12/05 16:58:47;;;;;;;56.28;37.35;;;;;;;;;;4845141;29;20070;-92
2022/12/05 17:01:18;;;;;;;58.53;35.05;;;;;;;;;;4843463;29;20026;-92
2022/12/05 17:03:44;;;;;;;51.55;34.83;;;;;;;;;;4842920;29;20533;-91
2022/12/05 17:06:13;;;;;;;53.10;35.63;;;;;;;;;;4849238;29;20097;-93
2022/12/05 17:08:40;;;;;;;56.30;36.55;;;;;;;;;;4851071;29;20038;-92
2022/12/05 17:11:09;;;;;;;59.85;35.35;;;;;;;;;;4849534;29;20037;-93
2022/12/05 17:13:46;;;;;;;;;;;;;;;;;;;;;
2022/12/05 17:16:12;;;;;;;54.67;35.83;;;;;;;;;;4876322;29;20100;-92
2022/12/05 17:18:39;;;;;;;55.85;35.42;;;;;;;;;;4866100;29;20025;-93
2022/12/05 17:24:16;;;;;;;63.53;36.40;;;;;;;;;;4868001;29;20102;-92
2022/12/05 17:26:58;;;;;;;54.00;34.55;;;;;;;;;;4853047;29;20354;-96
2022/12/05 17:29:24;;;;;;;62.75;37.03;;;;;;;;;;4849588;29;20029;-93
2022/12/05 17:31:50;;;;;;;55.58;35.95;;;;;;;;;;4850195;29;20037;-92
2022/12/05 17:34:17;;;;;;;54.95;35.83;;;;;;;;;;4850731;29;20097;-92
2022/12/05 17:36:44;;;;;;;62.97;39.13;;;;;;;;;;4853701;29;20081;-92
2022/12/05 17:39:10;;;;;;;53.17;35.72;;;;;;;;;;4850817;29;20146;-92
2022/12/05 17:41:36;;;;;;;68.90;40.33;;;;;;;;;;4848350;29;20041;-92
2022/12/05 17:44:03;;;;;;;57.58;37.53;;;;;;;;;;4848892;29;20177;-92
2022/12/05 17:46:32;;;;;;;57.75;37.28;;;;;;;;;;4849058;29;20037;-94
2022/12/05 17:49:10;;;;;;;51.60;34.17;;;;;;;;;;4862907;29;20034;-96
2022/12/05 17:51:41;;;;;;;57.75;38.40;;;;;;;;;;4866078;29;20436;-95
2022/12/05 17:54:08;;;;;;;55.80;35.90;;;;;;;;;;4868181;29;20834;-91
2022/12/05 17:56:35;;;;;;;56.30;35.58;;;;;;;;;;4864796;29;20041;-94
2022/12/05 17:59:01;;;;;;;82.10;44.97;;;;;;;;;;4866513;29;20097;-95
2022/12/05 18:01:27;;;;;;;60.95;38.30;;;;;;;;;;4867554;29;20081;-94
2022/12/05 18:03:53;;;;;;;53.85;35.92;;;;;;;;;;4865740;29;20081;-96
2022/12/05 18:06:34;;;;;;;57.60;35.78;;;;;;;;;;4865609;29;20047;-95
2022/12/05 18:09:31;;;;;;;59.60;36.35;;;;;;;;;;4872105;29;20029;-93
2022/12/05 18:11:58;;;;;;;62.83;38.35;;;;;;;;;;4871678;29;20037;-95
2022/12/05 18:14:27;;;;;;;62.50;37.47;;;;;;;;;;4872635;29;20039;-92
2022/12/05 18:16:53;;;;;;;58.25;37.15;;;;;;;;;;4872220;29;20056;-90
2022/12/05 18:19:19;;;;;;;59.78;38.25;;;;;;;;;;4866587;29;20048;-95
2022/12/05 18:21:45;;;;;;;53.95;34.95;;;;;;;;;;4865197;29;20082;-93
2022/12/05 18:24:11;;;;;;;55.00;36.33;;;;;;;;;;4867231;29;20029;-93
2022/12/05 18:26:46;;;;;;;54.63;37.25;;;;;;;;;;4865571;29;20029;-94
2022/12/05 18:29:12;;;;;;;61.55;37.35;;;;;;;;;;4865585;29;20036;-92
2022/12/05 18:31:40;;;;;;;53.45;35.50;;;;;;;;;;4866145;29;20516;-93
2022/12/05 18:34:06;;;;;;;57.55;37.55;;;;;;;;;;4868960;29;20096;-93
2022/12/05 18:36:33;;;;;;;61.30;39.92;;;;;;;;;;4865447;29;20037;-94
2022/12/05 18:39:13;;;;;;;76.45;43.78;;;;;;;;;;4868763;29;20057;-94
2022/12/05 18:41:39;;;;;;;60.55;38.28;;;;;;;;;;4866014;29;20033;-94
2022/12/05 18:44:07;;;;;;;64.43;41.10;;;;;;;;;;4862934;29;20021;-94
2022/12/05 18:46:33;;;;;;;70.18;41.45;;;;;;;;;;4866420;29;20033;-95
2022/12/05 18:48:59;;;;;;;52.55;35.10;;;;;;;;;;4864321;29;20121;-91
2022/12/05 18:51:26;;;;;;;54.78;36.33;;;;;;;;;;4865129;29;20045;-96
2022/12/05 18:53:53;;;;;;;59.80;39.08;;;;;;;;;;4867038;29;20078;-95
2022/12/05 18:56:25;;;;;;;54.58;36.70;;;;;;;;;;4871359;29;20021;-92
2022/12/05 19:02:14;;;;;;;63.00;40.20;;;;;;;;;;4881345;23;20060;-95
2022/12/05 19:07:45;;;;;;;56.07;37.33;;;;;;;;;;4891432;23;20081;-93
2022/12/05 19:10:11;;;;;;;53.15;36.60;;;;;;;;;;4851082;29;20293;-95
2022/12/05 19:12:37;;;;;;;56.38;37.20;;;;;;;;;;4855070;29;20033;-95
2022/12/05 19:15:14;;;;;;;52.08;35.53;;;;;;;;;;4867286;23;20060;-96
2022/12/05 19:21:03;;;;;;;50.20;33.75;;;;;;;;;;4845800;29;20138;-91
2022/12/05 19:23:31;;;;;;;56.65;37.70;;;;;;;;;;4837207;29;20045;-93
2022/12/05 19:26:00;;;;;;;59.70;38.13;;;;;;;;;;4834703;29;20038;-93
2022/12/05 19:28:27;;;;;;;63.28;37.65;;;;;;;;;;4828943;29;20026;-93
2022/12/05 19:31:04;;;;;;;62.92;40.80;;;;;;;;;;4836362;29;20042;-94
2022/12/05 19:33:32;;;;;;;55.42;37.75;;;;;;;;;;4844712;29;20041;-94
2022/12/05 19:36:01;;;;;;;60.40;39.33;;;;;;;;;;4845112;29;20021;-95
2022/12/05 19:38:30;;;;;;;59.50;37.85;;;;;;;;;;4844634;29;20041;-93
2022/12/05 19:40:56;;;;;;;67.00;40.63;;;;;;;;;;4844320;29;20030;-92
2022/12/05 19:43:22;;;;;;;78.88;44.05;;;;;;;;;;4830280;29;20101;-95
2022/12/05 19:45:50;;;;;;;53.92;37.67;;;;;;;;;;4843947;29;20102;-92
2022/12/05 19:48:17;;;;;;;55.60;36.53;;;;;;;;;;4842968;29;20065;-91
2022/12/05 19:50:43;;;;;;;57.78;38.65;;;;;;;;;;4842888;29;20285;-92
2022/12/05 19:53:11;;;;;;;60.65;39.05;;;;;;;;;;4842815;29;20124;-94
2022/12/05 19:55:38;;;;;;;54.47;36.55;;;;;;;;;;4843813;29;20488;-93
2022/12/05 19:58:04;;;;;;;56.42;37.45;;;;;;;;;;4845430;29;20038;-93
2022/12/05 20:00:31;;;;;;;55.97;37.40;;;;;;;;;;4844482;29;20077;-92
2022/12/05 20:03:00;;;;;;;73.70;41.75;;;;;;;;;;4851132;29;20120;-91
2022/12/05 20:05:28;;;;;;;52.55;36.85;;;;;;;;;;4842522;29;20078;-92
2022/12/05 20:07:54;;;;;;;58.45;37.85;;;;;;;;;;4842461;29;20102;-91
2022/12/05 20:10:21;;;;;;;55.10;37.28;;;;;;;;;;4842367;29;20476;-94
2022/12/05 20:12:47;;;;;;;59.97;38.88;;;;;;;;;;4842837;29;20038;-93
2022/12/05 20:15:13;;;;;;;68.85;41.70;;;;;;;;;;4842206;29;20057;-93
2022/12/05 20:17:39;;;;;;;77.30;45.53;;;;;;;;;;4842521;29;20065;-89
2022/12/05 20:20:06;;;;;;;57.13;39.30;;;;;;;;;;4842499;29;20086;-91
2022/12/05 20:22:32;;;;;;;69.07;42.92;;;;;;;;;;4842128;29;20037;-91
2022/12/05 20:24:58;;;;;;;71.80;42.55;;;;;;;;;;4842170;29;20034;-92
2022/12/05 20:27:24;;;;;;;61.70;39.83;;;;;;;;;;4842286;29;20046;-90
2022/12/05 20:29:50;;;;;;;60.35;40.22;;;;;;;;;;4843194;29;20030;-91
2022/12/05 20:35:08;;;;;;;54.58;36.63;;;;;;;;;;4856577;29;20061;-93
2022/12/05 20:38:06;;;;;;;67.55;39.75;;;;;;;;;;4858964;29;20109;-92
2022/12/05 20:40:43;;;;;;;66.80;39.92;;;;;;;;;;4860636;29;20042;-95
2022/12/05 20:47:01;;;;;;;65.22;38.85;;;;;;;;;;4859604;29;20045;-93
2022/12/05 20:53:11;;;;;;;56.13;36.00;;;;;;;;;;4827734;29;20046;-96
2022/12/05 20:55:46;;;;;;;76.57;43.22;;;;;;;;;;4819611;29;20070;-92
2022/12/05 20:58:21;;;;;;;53.15;36.22;;;;;;;;;;4839755;29;20455;-93
2022/12/05 21:00:59;;;;;;;61.70;38.67;;;;;;;;;;4833842;29;20042;-94
2022/12/05 21:03:35;;;;;;;52.10;35.25;;;;;;;;;;4832841;29;20039;-95
2022/12/05 21:06:35;;;;;;;73.78;42.80;;;;;;;;;;4996392;23;20066;-95
2022/12/05 21:15:26;;;;;;;64.30;39.67;;;;;;;;;;4862846;29;20042;-93
2022/12/05 21:17:59;;;;;;;58.45;37.20;;;;;;;;;;4866031;29;20026;-92
2022/12/05 21:20:34;;;;;;;65.05;39.67;;;;;;;;;;4864555;29;20028;-93
2022/12/05 21:23:05;;;;;;;55.17;37.58;;;;;;;;;;4867422;29;20017;-94
2022/12/05 21:25:32;;;;;;;59.53;38.83;;;;;;;;;;4829503;29;20040;-94
2022/12/05 21:27:59;;;;;;;83.05;45.95;;;;;;;;;;4856734;29;20507;-91
2022/12/05 21:30:25;;;;;;;69.40;42.05;;;;;;;;;;4865018;29;20029;-93
2022/12/05 21:32:51;;;;;;;67.00;41.22;;;;;;;;;;4848935;29;20034;-92
2022/12/05 21:35:17;;;;;;;57.30;38.88;;;;;;;;;;4864160;29;20037;-90
2022/12/05 21:37:43;;;;;;;49.90;35.03;;;;;;;;;;4845258;29;20029;-91
2022/12/05 21:40:10;;;;;;;54.15;37.15;;;;;;;;;;4844286;29;20065;-91
2022/12/05 21:42:36;;;;;;;72.70;42.95;;;;;;;;;;4843907;29;20069;-91
2022/12/05 21:47:35;;;;;;;65.55;40.45;;;;;;;;;;4843945;29;20046;-91